createdAt,value
2018-05-29T00:01:26.402Z,18.62
2018-05-29T00:03:54.758Z,18.76
2018-05-29T00:06:23.198Z,18.61
2018-05-29T00:08:52.277Z,18.50
2018-05-29T00:11:20.744Z,18.47
2018-05-29T00:13:50.097Z,18.32
2018-05-29T00:16:18.866Z,18.36
2018-05-29T00:18:47.214Z,18.16
2018-05-29T00:21:15.547Z,18.21
2018-05-29T00:23:44.783Z,18.29
2018-05-29T00:26:13.250Z,18.41
2018-05-29T00:28:41.558Z,18.38
2018-05-29T00:31:10.973Z,18.43
2018-05-29T00:33:39.296Z,18.23
2018-05-29T00:36:07.650Z,18.24
2018-05-29T00:38:36.027Z,18.25
2018-05-29T00:41:04.445Z,18.16
2018-05-29T00:43:32.784Z,17.90
2018-05-29T00:46:01.151Z,17.91
2018-05-29T00:48:29.466Z,17.97
2018-05-29T00:50:57.804Z,18.03
2018-05-29T00:53:26.478Z,18.14
2018-05-29T00:55:54.807Z,18.20
2018-05-29T00:58:23.129Z,18.15
2018-05-29T01:00:51.533Z,18.09
2018-05-29T01:03:19.874Z,18.05
2018-05-29T01:05:48.249Z,18.10
2018-05-29T01:08:17.159Z,18.06
2018-05-29T01:10:45.635Z,18.07
2018-05-29T01:13:14.000Z,18.01
2018-05-29T01:15:43.141Z,17.96
2018-05-29T01:18:11.473Z,17.87
2018-05-29T01:20:39.777Z,17.84
2018-05-29T01:23:08.385Z,17.90
2018-05-29T01:25:36.717Z,17.85
2018-05-29T01:28:05.047Z,17.93
2018-05-29T01:30:33.576Z,17.74
2018-05-29T01:33:01.959Z,17.73
2018-05-29T01:35:30.363Z,17.78
2018-05-29T01:37:58.697Z,17.77
2018-05-29T01:40:27.021Z,17.76
2018-05-29T01:42:55.396Z,17.80
2018-05-29T01:45:23.749Z,17.78
2018-05-29T01:47:52.098Z,17.79
2018-05-29T01:50:20.407Z,17.72
2018-05-29T01:52:49.106Z,17.76
2018-05-29T01:55:17.460Z,17.75
2018-05-29T01:57:45.819Z,17.77
2018-05-29T02:00:14.476Z,17.75
2018-05-29T02:02:42.817Z,17.71
2018-05-29T02:05:11.113Z,17.76
2018-05-29T02:07:39.550Z,17.72
2018-05-29T02:10:07.914Z,17.75
2018-05-29T02:12:36.225Z,17.78
2018-05-29T02:15:04.704Z,17.83
2018-05-29T02:17:33.028Z,17.86
2018-05-29T02:20:01.341Z,17.93
2018-05-29T02:22:29.707Z,18.05
2018-05-29T02:24:58.010Z,18.09
2018-05-29T02:27:26.342Z,18.12
2018-05-29T02:29:54.741Z,18.00
2018-05-29T02:32:23.044Z,18.02
2018-05-29T02:34:51.541Z,18.01
2018-05-29T02:37:19.910Z,18.00
2018-05-29T02:39:48.261Z,17.89
2018-05-29T02:42:16.610Z,17.68
2018-05-29T02:44:44.963Z,17.81
2018-05-29T02:47:13.314Z,17.69
2018-05-29T02:49:41.896Z,17.66
2018-05-29T02:52:10.236Z,17.56
2018-05-29T02:54:38.550Z,17.53
2018-05-29T02:57:06.910Z,17.51
2018-05-29T02:59:36.209Z,17.49
2018-05-29T03:02:04.567Z,17.50
2018-05-29T03:04:32.955Z,17.53
2018-05-29T03:07:02.089Z,17.56
2018-05-29T03:09:30.417Z,17.61
2018-05-29T03:11:58.733Z,17.65
2018-05-29T03:14:27.277Z,17.68
2018-05-29T03:16:55.598Z,17.72
2018-05-29T03:19:23.972Z,17.75
2018-05-29T03:21:52.649Z,17.82
2018-05-29T03:24:20.988Z,17.89
2018-05-29T03:26:49.318Z,17.92
2018-05-29T03:29:18.293Z,17.95
2018-05-29T03:31:46.637Z,18.15
2018-05-29T03:34:15.181Z,18.37
2018-05-29T03:36:44.163Z,18.50
2018-05-29T03:39:12.540Z,18.59
2018-05-29T03:41:40.853Z,18.62
2018-05-29T03:44:09.193Z,18.59
2018-05-29T03:46:37.504Z,18.63
2018-05-29T03:49:05.839Z,18.55
2018-05-29T03:51:34.985Z,18.50
2018-05-29T03:54:03.310Z,18.57
2018-05-29T03:56:31.641Z,18.58
2018-05-29T03:59:00.379Z,18.57
2018-05-29T04:01:28.693Z,18.53
2018-05-29T04:03:57.031Z,18.66
2018-05-29T04:06:25.427Z,18.71
2018-05-29T04:08:53.762Z,18.69
2018-05-29T04:11:22.168Z,18.62
2018-05-29T04:13:50.617Z,18.51
2018-05-29T04:16:18.945Z,18.68
2018-05-29T04:18:47.378Z,18.74
2018-05-29T04:21:15.893Z,18.71
2018-05-29T04:23:44.205Z,18.79
2018-05-29T04:26:12.606Z,18.82
2018-05-29T04:28:40.949Z,18.80
2018-05-29T04:31:09.297Z,18.73
2018-05-29T04:33:37.633Z,18.74
2018-05-29T04:36:06.140Z,18.72
2018-05-29T04:38:34.466Z,18.67
2018-05-29T04:41:02.790Z,18.66
2018-05-29T04:43:32.221Z,18.72
2018-05-29T04:46:00.639Z,18.72
2018-05-29T04:48:28.964Z,18.71
2018-05-29T04:50:58.221Z,18.74
2018-05-29T04:53:26.549Z,18.71
2018-05-29T04:55:54.880Z,18.70
2018-05-29T04:58:23.725Z,18.69
2018-05-29T05:00:52.096Z,18.74
2018-05-29T05:03:20.456Z,18.84
2018-05-29T05:05:49.681Z,18.85
2018-05-29T05:08:18.107Z,18.96
2018-05-29T05:10:46.499Z,18.93
2018-05-29T05:13:15.096Z,19.00
2018-05-29T05:15:43.442Z,19.01
2018-05-29T05:18:11.747Z,19.05
2018-05-29T05:20:40.872Z,19.09
2018-05-29T05:23:09.206Z,19.14
2018-05-29T05:25:37.549Z,19.17
2018-05-29T05:28:06.423Z,19.19
2018-05-29T05:30:34.755Z,19.15
2018-05-29T05:33:03.062Z,19.24
2018-05-29T05:35:31.776Z,19.27
2018-05-29T05:38:00.277Z,19.25
2018-05-29T05:40:28.590Z,19.30
2018-05-29T05:42:56.932Z,19.33
2018-05-29T05:45:25.262Z,19.40
2018-05-29T05:47:53.609Z,19.38
2018-05-29T05:50:22.009Z,19.46
2018-05-29T05:52:50.447Z,19.44
2018-05-29T05:55:18.746Z,19.52
2018-05-29T05:57:47.312Z,19.46
2018-05-29T06:00:15.789Z,19.55
2018-05-29T06:02:44.194Z,19.61
2018-05-29T06:05:12.615Z,19.54
2018-05-29T06:07:40.877Z,19.60
2018-05-29T06:10:09.203Z,19.79
2018-05-29T06:12:38.017Z,19.85
2018-05-29T06:15:06.432Z,19.82
2018-05-29T06:17:34.748Z,19.85
2018-05-29T06:20:03.913Z,19.96
2018-05-29T06:22:32.237Z,20.05
2018-05-29T06:25:00.570Z,20.12
2018-05-29T06:27:28.909Z,20.18
2018-05-29T06:29:57.247Z,20.12
2018-05-29T06:32:25.547Z,20.15
2018-05-29T06:34:54.054Z,20.20
2018-05-29T06:37:22.386Z,20.20
2018-05-29T06:39:50.757Z,20.30
2018-05-29T06:42:19.388Z,20.38
2018-05-29T06:44:47.804Z,20.31
2018-05-29T06:47:16.076Z,20.52
2018-05-29T06:49:44.545Z,20.55
2018-05-29T06:52:13.092Z,20.61
2018-05-29T06:54:41.379Z,20.82
2018-05-29T06:57:09.720Z,20.92
2018-05-29T06:59:38.027Z,20.86
2018-05-29T07:02:06.352Z,20.97
2018-05-29T07:04:34.684Z,21.11
2018-05-29T07:07:03.012Z,21.16
2018-05-29T07:09:31.311Z,21.22
2018-05-29T07:12:00.921Z,21.30
2018-05-29T07:14:29.259Z,21.14
2018-05-29T07:16:57.561Z,21.17
2018-05-29T07:19:27.692Z,21.11
2018-05-29T07:21:56.022Z,21.24
2018-05-29T07:24:24.358Z,21.41
2018-05-29T07:26:53.873Z,21.66
2018-05-29T07:29:22.230Z,21.40
2018-05-29T07:31:50.590Z,21.17
2018-05-29T07:34:19.109Z,21.29
2018-05-29T07:36:47.498Z,21.35
2018-05-29T07:39:15.954Z,21.72
2018-05-29T07:41:45.427Z,22.03
2018-05-29T07:44:13.953Z,22.12
2018-05-29T07:46:42.483Z,22.09
2018-05-29T07:49:10.957Z,21.88
2018-05-29T07:51:39.363Z,21.99
2018-05-29T07:54:07.683Z,22.11
2018-05-29T07:56:36.336Z,22.25
2018-05-29T07:59:04.675Z,22.25
2018-05-29T08:01:33.094Z,22.37
2018-05-29T08:04:02.309Z,22.49
2018-05-29T08:06:30.658Z,22.70
2018-05-29T08:08:58.962Z,22.72
2018-05-29T08:11:27.387Z,22.79
2018-05-29T08:13:55.709Z,22.83
2018-05-29T08:16:24.022Z,22.64
2018-05-29T08:18:52.370Z,22.89
2018-05-29T08:21:20.724Z,23.06
2018-05-29T08:23:49.043Z,23.14
2018-05-29T08:26:17.394Z,23.23
2018-05-29T08:28:45.708Z,23.20
2018-05-29T08:31:14.058Z,22.75
2018-05-29T08:33:42.400Z,23.04
2018-05-29T08:36:10.712Z,23.19
2018-05-29T08:38:39.092Z,23.08
2018-05-29T08:41:07.477Z,23.12
2018-05-29T08:43:35.776Z,22.89
2018-05-29T08:46:04.167Z,23.08
2018-05-29T08:48:32.808Z,23.05
2018-05-29T08:51:01.121Z,23.14
2018-05-29T08:53:29.441Z,23.15
2018-05-29T08:55:58.233Z,23.23
2018-05-29T08:58:26.590Z,23.44
2018-05-29T09:00:54.934Z,23.50
2018-05-29T09:03:24.758Z,23.36
2018-05-29T09:05:53.120Z,23.05
2018-05-29T09:08:21.484Z,22.85
2018-05-29T09:10:49.870Z,23.19
2018-05-29T09:13:18.240Z,23.55
2018-05-29T09:15:46.610Z,23.65
2018-05-29T09:18:15.965Z,23.89
2018-05-29T09:20:44.298Z,23.56
2018-05-29T09:23:13.549Z,23.62
2018-05-29T09:25:41.897Z,24.02
2018-05-29T09:28:10.197Z,23.51
2018-05-29T09:30:38.522Z,23.00
2018-05-29T09:33:07.261Z,22.86
2018-05-29T09:35:35.612Z,22.98
2018-05-29T09:38:03.889Z,22.91
2018-05-29T09:40:32.784Z,23.52
2018-05-29T09:43:01.100Z,23.78
2018-05-29T09:45:29.534Z,23.56
2018-05-29T09:47:57.851Z,24.49
2018-05-29T09:50:26.164Z,25.14
2018-05-29T09:52:54.541Z,25.80
2018-05-29T09:55:22.906Z,25.66
2018-05-29T09:57:51.254Z,25.88
2018-05-29T10:00:25.625Z,25.96
2018-05-29T10:02:53.953Z,25.94
2018-05-29T10:05:22.326Z,26.18
2018-05-29T10:07:50.868Z,26.92
2018-05-29T10:10:20.088Z,28.03
2018-05-29T10:12:48.456Z,28.19
2018-05-29T10:15:17.511Z,28.30
2018-05-29T10:17:45.859Z,28.26
2018-05-29T10:20:14.234Z,28.61
2018-05-29T10:22:43.300Z,29.13
2018-05-29T10:25:11.616Z,28.86
2018-05-29T10:27:39.948Z,29.38
2018-05-29T10:30:09.289Z,28.64
2018-05-29T10:32:37.587Z,27.79
2018-05-29T10:35:05.930Z,28.55
2018-05-29T10:37:34.318Z,28.65
2018-05-29T10:40:02.644Z,28.45
2018-05-29T10:42:30.952Z,29.25
2018-05-29T10:44:59.295Z,28.75
2018-05-29T10:47:27.601Z,28.76
2018-05-29T10:49:55.969Z,29.74
2018-05-29T10:52:24.595Z,29.52
2018-05-29T10:54:52.885Z,27.79
2018-05-29T10:57:21.230Z,28.09
2018-05-29T10:59:49.574Z,27.98
2018-05-29T11:02:17.923Z,28.08
2018-05-29T11:04:46.306Z,28.17
2018-05-29T11:07:14.765Z,28.01
2018-05-29T11:09:43.131Z,27.40
2018-05-29T11:12:11.459Z,27.58
2018-05-29T11:14:39.813Z,27.49
2018-05-29T11:17:08.173Z,28.00
2018-05-29T11:19:36.499Z,29.19
2018-05-29T11:22:05.469Z,29.83
2018-05-29T11:24:33.796Z,30.17
2018-05-29T11:27:02.119Z,30.51
2018-05-29T11:29:30.461Z,31.15
2018-05-29T11:31:58.801Z,30.80
2018-05-29T11:34:27.105Z,31.38
2018-05-29T11:36:55.465Z,31.17
2018-05-29T11:39:23.832Z,30.81
2018-05-29T11:41:52.245Z,30.22
2018-05-29T11:44:21.413Z,29.89
2018-05-29T11:46:49.733Z,30.55
2018-05-29T11:49:18.068Z,31.20
2018-05-29T11:51:46.501Z,31.84
2018-05-29T11:54:14.936Z,31.19
2018-05-29T11:56:43.301Z,32.13
2018-05-29T11:59:12.527Z,31.64
2018-05-29T12:01:40.922Z,32.22
2018-05-29T12:04:09.238Z,32.00
2018-05-29T12:06:39.100Z,32.45
2018-05-29T12:09:07.429Z,32.60
2018-05-29T12:11:35.730Z,32.59
2018-05-29T12:14:04.060Z,32.63
2018-05-29T12:16:32.357Z,32.98
2018-05-29T12:19:00.671Z,32.93
2018-05-29T12:21:29.303Z,32.91
2018-05-29T12:23:57.622Z,32.35
2018-05-29T12:26:25.958Z,32.00
2018-05-29T12:28:54.497Z,32.33
2018-05-29T12:31:22.897Z,32.98
2018-05-29T12:33:51.312Z,33.35
2018-05-29T12:36:19.713Z,33.47
2018-05-29T12:38:48.042Z,33.33
2018-05-29T12:41:16.396Z,32.82
2018-05-29T12:43:44.761Z,32.22
2018-05-29T12:46:13.250Z,33.35
2018-05-29T12:48:41.465Z,33.63
2018-05-29T12:51:09.805Z,33.69
2018-05-29T12:53:38.126Z,32.92
2018-05-29T12:56:06.444Z,33.05
2018-05-29T12:58:35.305Z,33.59
2018-05-29T13:01:03.631Z,33.78
2018-05-29T13:03:31.957Z,33.58
2018-05-29T13:06:00.370Z,33.14
2018-05-29T13:08:28.742Z,33.31
2018-05-29T13:10:57.059Z,33.80
2018-05-29T13:13:25.441Z,33.20
2018-05-29T13:15:53.794Z,33.63
2018-05-29T13:18:22.119Z,34.18
2018-05-29T13:20:51.028Z,33.95
2018-05-29T13:23:19.357Z,34.49
2018-05-29T13:25:47.847Z,34.90
2018-05-29T13:28:16.623Z,35.10
2018-05-29T13:30:45.058Z,33.77
2018-05-29T13:33:13.382Z,33.92
2018-05-29T13:35:41.727Z,33.93
2018-05-29T13:38:10.027Z,34.91
2018-05-29T13:40:38.349Z,35.08
2018-05-29T13:43:07.174Z,34.88
2018-05-29T13:45:35.659Z,34.04
2018-05-29T13:48:03.977Z,33.31
2018-05-29T13:50:32.314Z,33.09
2018-05-29T13:53:00.610Z,32.84
2018-05-29T13:55:29.635Z,33.65
2018-05-29T13:57:58.065Z,33.23
2018-05-29T14:00:26.373Z,33.98
2018-05-29T14:02:54.693Z,34.14
2018-05-29T14:05:23.301Z,33.53
2018-05-29T14:07:51.698Z,33.73
2018-05-29T14:10:20.017Z,33.15
2018-05-29T14:12:48.362Z,32.72
2018-05-29T14:15:18.311Z,32.99
2018-05-29T14:17:46.894Z,32.35
2018-05-29T14:20:16.281Z,32.82
2018-05-29T14:22:44.665Z,32.75
2018-05-29T14:25:13.011Z,33.18
2018-05-29T14:27:41.383Z,32.56
2018-05-29T14:30:09.698Z,32.25
2018-05-29T14:32:38.982Z,32.31
2018-05-29T14:35:07.331Z,32.87
2018-05-29T14:37:35.631Z,32.60
2018-05-29T14:40:03.947Z,32.40
2018-05-29T14:42:32.348Z,32.84
2018-05-29T14:45:00.643Z,32.38
2018-05-29T14:47:28.938Z,32.96
2018-05-29T14:49:57.285Z,32.71
2018-05-29T14:52:25.627Z,33.17
2018-05-29T14:54:53.910Z,34.08
2018-05-29T14:57:22.864Z,33.43
2018-05-29T14:59:51.174Z,33.64
2018-05-29T15:02:19.529Z,33.05
2018-05-29T15:04:47.978Z,32.92
2018-05-29T15:07:16.306Z,32.48
2018-05-29T15:09:44.672Z,32.66
2018-05-29T15:12:14.528Z,32.03
2018-05-29T15:14:43.702Z,31.53
2018-05-29T15:17:12.028Z,31.34
2018-05-29T15:19:41.447Z,31.10
2018-05-29T15:22:09.782Z,31.41
2018-05-29T15:24:38.137Z,31.59
2018-05-29T15:27:06.649Z,31.94
2018-05-29T15:29:34.956Z,31.95
2018-05-29T15:32:03.265Z,31.79
2018-05-29T15:34:31.599Z,31.57
2018-05-29T15:36:59.897Z,31.98
2018-05-29T15:39:28.206Z,32.06
2018-05-29T15:41:56.562Z,31.78
2018-05-29T15:44:24.884Z,32.13
2018-05-29T15:46:53.187Z,31.70
2018-05-29T15:49:21.567Z,31.35
2018-05-29T15:51:49.901Z,31.37
2018-05-29T15:54:18.312Z,31.46
2018-05-29T15:56:46.830Z,31.38
2018-05-29T15:59:15.209Z,31.30
2018-05-29T16:01:43.698Z,31.39
2018-05-29T16:04:12.683Z,31.62
2018-05-29T16:06:40.998Z,30.81
2018-05-29T16:09:09.296Z,30.79
2018-05-29T16:11:38.050Z,30.43
2018-05-29T16:14:06.990Z,30.80
2018-05-29T16:16:35.289Z,30.77
2018-05-29T16:19:03.768Z,30.31
2018-05-29T16:21:34.444Z,30.12
2018-05-29T16:24:02.906Z,30.71
2018-05-29T16:26:31.329Z,30.04
2018-05-29T16:28:59.680Z,30.43
2018-05-29T16:31:28.038Z,30.13
2018-05-29T16:33:56.396Z,30.19
2018-05-29T16:36:24.716Z,30.59
2018-05-29T16:38:53.037Z,30.71
2018-05-29T16:41:22.248Z,30.52
2018-05-29T16:43:50.682Z,30.33
2018-05-29T16:46:19.021Z,30.42
2018-05-29T16:48:47.401Z,30.46
2018-05-29T16:51:15.777Z,30.43
2018-05-29T16:53:44.506Z,30.49
2018-05-29T16:56:14.167Z,29.73
2018-05-29T16:58:42.472Z,29.04
2018-05-29T17:01:10.921Z,28.88
2018-05-29T17:03:39.258Z,28.04
2018-05-29T17:06:07.607Z,27.93
2018-05-29T17:08:35.953Z,28.17
2018-05-29T17:11:04.321Z,27.99
2018-05-29T17:13:33.622Z,27.56
2018-05-29T17:16:02.468Z,27.15
2018-05-29T17:18:30.868Z,27.12
2018-05-29T17:20:59.172Z,26.90
2018-05-29T17:23:27.517Z,26.46
2018-05-29T17:25:55.878Z,26.26
2018-05-29T17:28:24.238Z,25.95
2018-05-29T17:30:52.601Z,25.96
2018-05-29T17:33:20.968Z,25.88
2018-05-29T17:35:49.323Z,25.87
2018-05-29T17:38:17.706Z,25.66
2018-05-29T17:40:46.085Z,25.71
2018-05-29T17:43:14.423Z,25.61
2018-05-29T17:45:42.759Z,26.01
2018-05-29T17:48:11.167Z,26.53
2018-05-29T17:50:39.512Z,26.99
2018-05-29T17:53:07.821Z,26.99
2018-05-29T17:55:36.223Z,27.37
2018-05-29T17:58:04.541Z,27.47
2018-05-29T18:00:32.842Z,27.75
2018-05-29T18:03:01.265Z,27.46
2018-05-29T18:05:29.611Z,27.54
2018-05-29T18:07:57.958Z,27.51
2018-05-29T18:10:26.289Z,27.43
2018-05-29T18:12:54.619Z,27.10
2018-05-29T18:15:22.977Z,27.06
2018-05-29T18:17:51.458Z,27.06
2018-05-29T18:20:19.780Z,26.98
2018-05-29T18:22:48.256Z,26.89
2018-05-29T18:25:16.735Z,26.71
2018-05-29T18:27:45.247Z,26.53
2018-05-29T18:30:13.639Z,26.48
2018-05-29T18:32:42.075Z,26.39
2018-05-29T18:35:10.366Z,26.24
2018-05-29T18:37:38.685Z,26.03
2018-05-29T18:40:07.823Z,26.07
2018-05-29T18:42:36.140Z,25.82
2018-05-29T18:45:04.506Z,25.27
2018-05-29T18:47:33.724Z,25.22
2018-05-29T18:50:02.058Z,25.01
2018-05-29T18:52:30.380Z,25.11
2018-05-29T18:54:59.189Z,24.77
2018-05-29T18:57:27.486Z,24.49
2018-05-29T18:59:55.790Z,24.16
2018-05-29T19:02:24.965Z,23.90
2018-05-29T19:04:53.293Z,23.86
2018-05-29T19:07:21.888Z,23.84
2018-05-29T19:09:50.872Z,23.78
2018-05-29T19:12:19.508Z,23.75
2018-05-29T19:14:48.550Z,23.56
2018-05-29T19:17:17.700Z,23.39
2018-05-29T19:19:46.094Z,23.43
2018-05-29T19:22:14.469Z,23.40
2018-05-29T19:24:42.953Z,23.25
2018-05-29T19:27:11.269Z,23.19
2018-05-29T19:29:40.538Z,23.19
2018-05-29T19:32:08.890Z,23.17
2018-05-29T19:34:37.199Z,23.04
2018-05-29T19:37:05.522Z,23.25
2018-05-29T19:39:33.850Z,23.09
2018-05-29T19:42:02.199Z,23.07
2018-05-29T19:44:30.843Z,23.05
2018-05-29T19:46:59.185Z,23.06
2018-05-29T19:49:27.522Z,23.03
2018-05-29T19:51:55.880Z,23.06
2018-05-29T19:54:24.307Z,23.01
2018-05-29T19:56:52.891Z,23.04
2018-05-29T19:59:21.237Z,23.13
2018-05-29T20:01:49.839Z,23.12
2018-05-29T20:04:18.183Z,23.08
2018-05-29T20:06:46.654Z,23.18
2018-05-29T20:09:15.107Z,23.10
2018-05-29T20:11:43.489Z,23.11
2018-05-29T20:14:11.846Z,23.09
2018-05-29T20:16:41.082Z,23.06
2018-05-29T20:19:09.399Z,23.03
2018-05-29T20:21:37.761Z,22.97
2018-05-29T20:24:06.641Z,22.95
2018-05-29T20:26:34.961Z,22.94
2018-05-29T20:29:03.252Z,23.02
2018-05-29T20:31:32.270Z,22.96
2018-05-29T20:34:00.573Z,23.00
2018-05-29T20:36:28.901Z,22.93
2018-05-29T20:38:57.251Z,22.83
2018-05-29T20:41:25.582Z,22.79
2018-05-29T20:43:53.960Z,22.72
2018-05-29T20:46:24.045Z,22.68
2018-05-29T20:48:52.474Z,22.66
2018-05-29T20:51:20.955Z,22.66
2018-05-29T20:53:49.350Z,22.51
2018-05-29T20:56:17.905Z,22.56
2018-05-29T20:58:46.387Z,22.48
2018-05-29T21:01:14.839Z,22.45
2018-05-29T21:03:43.280Z,22.40
2018-05-29T21:06:11.627Z,22.37
2018-05-29T21:08:40.765Z,22.33
2018-05-29T21:11:09.070Z,22.29
2018-05-29T21:13:37.398Z,22.19
2018-05-29T21:16:06.457Z,22.14
2018-05-29T21:18:34.807Z,22.18
2018-05-29T21:21:03.156Z,22.10
2018-05-29T21:23:31.702Z,22.05
2018-05-29T21:26:00.039Z,22.03
2018-05-29T21:28:28.347Z,22.05
2018-05-29T21:30:56.686Z,21.95
2018-05-29T21:33:25.019Z,21.90
2018-05-29T21:35:53.373Z,21.79
2018-05-29T21:38:21.750Z,21.87
2018-05-29T21:40:50.167Z,21.71
2018-05-29T21:43:18.565Z,21.76
2018-05-29T21:45:47.073Z,21.70
2018-05-29T21:48:15.690Z,21.64
2018-05-29T21:50:44.358Z,21.49
2018-05-29T21:53:13.197Z,21.40
2018-05-29T21:55:41.571Z,21.49
2018-05-29T21:58:09.890Z,21.33
2018-05-29T22:00:38.829Z,21.31
2018-05-29T22:03:07.216Z,21.30
2018-05-29T22:05:35.554Z,21.24
2018-05-29T22:08:04.387Z,21.25
2018-05-29T22:10:32.708Z,21.18
2018-05-29T22:13:01.029Z,21.10
2018-05-29T22:15:29.405Z,20.96
2018-05-29T22:17:57.712Z,20.83
2018-05-29T22:20:26.130Z,20.82
2018-05-29T22:22:54.961Z,20.85
2018-05-29T22:25:23.449Z,20.90
2018-05-29T22:27:51.881Z,20.82
2018-05-29T22:30:20.296Z,20.77
2018-05-29T22:32:48.592Z,20.74
2018-05-29T22:35:17.067Z,20.68
2018-05-29T22:37:45.837Z,20.67
2018-05-29T22:40:14.298Z,20.68
2018-05-29T22:42:42.670Z,20.58
2018-05-29T22:45:11.520Z,20.60
2018-05-29T22:47:39.839Z,20.54
2018-05-29T22:50:08.148Z,20.51
2018-05-29T22:52:36.591Z,20.35
2018-05-29T22:55:04.989Z,20.36
2018-05-29T22:57:33.363Z,20.33
2018-05-29T23:00:01.777Z,20.41
2018-05-29T23:02:30.069Z,20.42
2018-05-29T23:04:58.400Z,20.32
2018-05-29T23:07:27.664Z,20.23
2018-05-29T23:09:55.997Z,20.22
2018-05-29T23:12:24.317Z,20.26
2018-05-29T23:14:53.480Z,20.18
2018-05-29T23:17:22.561Z,20.23
2018-05-29T23:19:51.697Z,20.18
2018-05-29T23:22:20.276Z,20.15
2018-05-29T23:24:48.635Z,20.10
2018-05-29T23:27:17.035Z,20.03
2018-05-29T23:29:46.501Z,19.95
2018-05-29T23:32:15.296Z,19.82
2018-05-29T23:34:43.705Z,19.84
2018-05-29T23:37:12.059Z,19.78
2018-05-29T23:39:40.391Z,19.76
2018-05-29T23:42:08.702Z,19.68
2018-05-29T23:44:37.045Z,19.65
2018-05-29T23:47:05.362Z,19.54
2018-05-29T23:49:33.680Z,19.47
2018-05-29T23:52:02.004Z,19.42
2018-05-29T23:54:30.376Z,19.36
2018-05-29T23:56:58.681Z,19.27
2018-05-29T23:59:28.187Z,19.28
